sensor_id;sensor_type;location;lat;lon;timestamp;P1;durP1;ratioP1;P2;durP2;ratioP2
41568;SDS011;27283;52.504;13.358;2023-12-04T00:02:09;95.25;;;26.95;;
41568;SDS011;27283;52.504;13.358;2023-12-04T00:04:43;87.65;;;28.33;;
41568;SDS011;27283;52.504;13.358;2023-12-04T00:07:18;92.03;;;26.83;;
41568;SDS011;27283;52.504;13.358;2023-12-04T00:09:50;91.53;;;29.27;;
41568;SDS011;27283;52.504;13.358;2023-12-04T00:12:22;98.47;;;28.65;;
41568;SDS011;27283;52.504;13.358;2023-12-04T00:14:55;90.55;;;27.70;;
41568;SDS011;27283;52.504;13.358;2023-12-04T00:17:27;98.40;;;28.77;;
41568;SDS011;27283;52.504;13.358;2023-12-04T00:20:00;87.47;;;27.13;;
41568;SDS011;27283;52.504;13.358;2023-12-04T00:22:35;92.45;;;28.73;;
41568;SDS011;27283;52.504;13.358;2023-12-04T00:25:10;94.95;;;26.80;;
41568;SDS011;27283;52.504;13.358;2023-12-04T00:27:47;98.03;;;29.00;;
41568;SDS011;27283;52.504;13.358;2023-12-04T00:30:19;97.78;;;28.25;;
41568;SDS011;27283;52.504;13.358;2023-12-04T00:32:52;109.68;;;30.15;;
41568;SDS011;27283;52.504;13.358;2023-12-04T00:35:24;105.03;;;30.52;;
41568;SDS011;27283;52.504;13.358;2023-12-04T00:37:59;108.50;;;29.35;;
41568;SDS011;27283;52.504;13.358;2023-12-04T00:40:32;112.10;;;31.63;;
41568;SDS011;27283;52.504;13.358;2023-12-04T00:43:04;114.40;;;30.33;;
41568;SDS011;27283;52.504;13.358;2023-12-04T00:45:37;104.45;;;31.85;;
41568;SDS011;27283;52.504;13.358;2023-12-04T00:48:10;122.78;;;33.17;;
41568;SDS011;27283;52.504;13.358;2023-12-04T00:50:42;111.78;;;29.60;;
41568;SDS011;27283;52.504;13.358;2023-12-04T00:53:17;117.80;;;32.10;;
41568;SDS011;27283;52.504;13.358;2023-12-04T00:55:50;117.70;;;32.65;;
41568;SDS011;27283;52.504;13.358;2023-12-04T00:58:22;126.82;;;32.13;;
41568;SDS011;27283;52.504;13.358;2023-12-04T01:00:54;136.73;;;32.97;;
41568;SDS011;27283;52.504;13.358;2023-12-04T01:03:26;124.65;;;33.42;;
41568;SDS011;27283;52.504;13.358;2023-12-04T01:06:02;115.13;;;32.83;;
41568;SDS011;27283;52.504;13.358;2023-12-04T01:08:37;109.57;;;32.38;;
41568;SDS011;27283;52.504;13.358;2023-12-04T01:11:09;120.38;;;32.80;;
41568;SDS011;27283;52.504;13.358;2023-12-04T01:13:41;124.95;;;31.88;;
41568;SDS011;27283;52.504;13.358;2023-12-04T01:16:13;116.25;;;32.75;;
41568;SDS011;27283;52.504;13.358;2023-12-04T01:18:45;117.95;;;32.05;;
41568;SDS011;27283;52.504;13.358;2023-12-04T01:21:18;117.82;;;31.90;;
41568;SDS011;27283;52.504;13.358;2023-12-04T01:23:52;114.22;;;30.30;;
41568;SDS011;27283;52.504;13.358;2023-12-04T01:26:24;121.53;;;34.08;;
41568;SDS011;27283;52.504;13.358;2023-12-04T01:28:56;104.90;;;31.00;;
41568;SDS011;27283;52.504;13.358;2023-12-04T01:31:28;113.72;;;33.25;;
41568;SDS011;27283;52.504;13.358;2023-12-04T01:34:00;120.18;;;33.13;;
41568;SDS011;27283;52.504;13.358;2023-12-04T01:36:33;115.13;;;32.33;;
41568;SDS011;27283;52.504;13.358;2023-12-04T01:42:03;119.45;;;32.40;;
41568;SDS011;27283;52.504;13.358;2023-12-04T01:44:36;118.25;;;32.88;;
41568;SDS011;27283;52.504;13.358;2023-12-04T01:47:08;112.45;;;31.75;;
41568;SDS011;27283;52.504;13.358;2023-12-04T01:49:41;121.55;;;32.83;;
41568;SDS011;27283;52.504;13.358;2023-12-04T01:52:14;117.75;;;33.75;;
41568;SDS011;27283;52.504;13.358;2023-12-04T01:54:46;123.40;;;34.03;;
41568;SDS011;27283;52.504;13.358;2023-12-04T01:57:21;113.90;;;32.55;;
41568;SDS011;27283;52.504;13.358;2023-12-04T01:59:53;118.90;;;33.40;;
41568;SDS011;27283;52.504;13.358;2023-12-04T02:02:25;112.03;;;31.73;;
41568;SDS011;27283;52.504;13.358;2023-12-04T02:04:59;117.65;;;31.67;;
41568;SDS011;27283;52.504;13.358;2023-12-04T02:07:31;115.03;;;32.17;;
41568;SDS011;27283;52.504;13.358;2023-12-04T02:10:05;112.68;;;31.77;;
41568;SDS011;27283;52.504;13.358;2023-12-04T02:15:05;110.63;;;31.55;;
41568;SDS011;27283;52.504;13.358;2023-12-04T02:17:42;106.45;;;31.75;;
41568;SDS011;27283;52.504;13.358;2023-12-04T02:20:30;119.85;;;32.28;;
41568;SDS011;27283;52.504;13.358;2023-12-04T02:23:18;109.28;;;30.58;;
41568;SDS011;27283;52.504;13.358;2023-12-04T02:25:53;107.32;;;31.52;;
41568;SDS011;27283;52.504;13.358;2023-12-04T02:28:30;109.05;;;32.83;;
41568;SDS011;27283;52.504;13.358;2023-12-04T02:31:05;107.25;;;32.40;;
41568;SDS011;27283;52.504;13.358;2023-12-04T02:33:40;106.85;;;31.42;;
41568;SDS011;27283;52.504;13.358;2023-12-04T02:36:12;103.63;;;30.10;;
41568;SDS011;27283;52.504;13.358;2023-12-04T02:38:45;105.35;;;30.45;;
41568;SDS011;27283;52.504;13.358;2023-12-04T02:41:20;96.90;;;29.73;;
41568;SDS011;27283;52.504;13.358;2023-12-04T02:43:53;88.05;;;29.08;;
41568;SDS011;27283;52.504;13.358;2023-12-04T02:46:24;99.20;;;29.55;;
41568;SDS011;27283;52.504;13.358;2023-12-04T02:48:57;108.05;;;30.08;;
41568;SDS011;27283;52.504;13.358;2023-12-04T02:51:30;106.45;;;31.35;;
41568;SDS011;27283;52.504;13.358;2023-12-04T02:54:02;99.70;;;29.67;;
41568;SDS011;27283;52.504;13.358;2023-12-04T02:56:37;94.85;;;28.70;;
41568;SDS011;27283;52.504;13.358;2023-12-04T02:59:09;99.68;;;29.85;;
41568;SDS011;27283;52.504;13.358;2023-12-04T03:01:41;93.75;;;28.85;;
41568;SDS011;27283;52.504;13.358;2023-12-04T03:04:13;95.07;;;30.23;;
41568;SDS011;27283;52.504;13.358;2023-12-04T03:06:45;100.40;;;28.83;;
41568;SDS011;27283;52.504;13.358;2023-12-04T03:09:18;86.78;;;28.75;;
41568;SDS011;27283;52.504;13.358;2023-12-04T03:12:12;96.18;;;29.73;;
41568;SDS011;27283;52.504;13.358;2023-12-04T03:14:45;90.90;;;28.92;;
41568;SDS011;27283;52.504;13.358;2023-12-04T03:17:17;85.32;;;28.55;;
41568;SDS011;27283;52.504;13.358;2023-12-04T03:19:52;93.68;;;29.30;;
41568;SDS011;27283;52.504;13.358;2023-12-04T03:22:28;91.53;;;28.25;;
41568;SDS011;27283;52.504;13.358;2023-12-04T03:25:01;87.15;;;29.02;;
41568;SDS011;27283;52.504;13.358;2023-12-04T03:27:36;89.95;;;28.17;;
41568;SDS011;27283;52.504;13.358;2023-12-04T03:30:08;88.32;;;27.73;;
41568;SDS011;27283;52.504;13.358;2023-12-04T03:32:41;95.05;;;29.13;;
41568;SDS011;27283;52.504;13.358;2023-12-04T03:35:14;90.30;;;28.02;;
41568;SDS011;27283;52.504;13.358;2023-12-04T03:37:45;94.18;;;30.13;;
41568;SDS011;27283;52.504;13.358;2023-12-04T03:40:18;87.03;;;27.40;;
41568;SDS011;27283;52.504;13.358;2023-12-04T03:42:52;83.05;;;28.23;;
41568;SDS011;27283;52.504;13.358;2023-12-04T03:45:25;88.25;;;28.55;;
41568;SDS011;27283;52.504;13.358;2023-12-04T03:47:57;83.35;;;28.65;;
41568;SDS011;27283;52.504;13.358;2023-12-04T03:50:29;88.93;;;28.15;;
41568;SDS011;27283;52.504;13.358;2023-12-04T03:53:03;88.70;;;27.20;;
41568;SDS011;27283;52.504;13.358;2023-12-04T03:55:35;81.93;;;26.40;;
41568;SDS011;27283;52.504;13.358;2023-12-04T03:58:10;82.18;;;26.35;;
41568;SDS011;27283;52.504;13.358;2023-12-04T04:00:42;80.18;;;26.40;;
41568;SDS011;27283;52.504;13.358;2023-12-04T04:03:14;81.38;;;26.48;;
41568;SDS011;27283;52.504;13.358;2023-12-04T04:05:47;75.40;;;25.08;;
41568;SDS011;27283;52.504;13.358;2023-12-04T04:08:19;79.68;;;25.60;;
41568;SDS011;27283;52.504;13.358;2023-12-04T04:10:52;76.97;;;25.63;;
41568;SDS011;27283;52.504;13.358;2023-12-04T04:13:26;76.30;;;26.58;;
41568;SDS011;27283;52.504;13.358;2023-12-04T04:16:00;69.38;;;24.75;;
41568;SDS011;27283;52.504;13.358;2023-12-04T04:18:31;70.30;;;23.83;;
41568;SDS011;27283;52.504;13.358;2023-12-04T04:21:05;70.82;;;24.77;;
41568;SDS011;27283;52.504;13.358;2023-12-04T04:23:37;68.80;;;24.95;;
41568;SDS011;27283;52.504;13.358;2023-12-04T04:26:10;78.00;;;25.48;;
41568;SDS011;27283;52.504;13.358;2023-12-04T04:28:54;76.13;;;24.55;;
41568;SDS011;27283;52.504;13.358;2023-12-04T04:31:26;70.53;;;24.08;;
41568;SDS011;27283;52.504;13.358;2023-12-04T04:33:59;66.35;;;23.25;;
41568;SDS011;27283;52.504;13.358;2023-12-04T04:36:32;70.90;;;24.40;;
41568;SDS011;27283;52.504;13.358;2023-12-04T04:39:04;74.88;;;24.63;;
41568;SDS011;27283;52.504;13.358;2023-12-04T04:41:37;75.57;;;25.48;;
41568;SDS011;27283;52.504;13.358;2023-12-04T04:44:12;73.40;;;23.70;;
41568;SDS011;27283;52.504;13.358;2023-12-04T04:46:44;70.85;;;24.42;;
41568;SDS011;27283;52.504;13.358;2023-12-04T04:49:16;71.18;;;24.13;;
41568;SDS011;27283;52.504;13.358;2023-12-04T04:51:49;71.20;;;24.42;;
41568;SDS011;27283;52.504;13.358;2023-12-04T04:54:22;65.90;;;23.13;;
41568;SDS011;27283;52.504;13.358;2023-12-04T04:56:54;67.78;;;24.40;;
41568;SDS011;27283;52.504;13.358;2023-12-04T04:59:29;67.05;;;23.42;;
41568;SDS011;27283;52.504;13.358;2023-12-04T05:02:02;72.32;;;23.60;;
41568;SDS011;27283;52.504;13.358;2023-12-04T05:04:34;67.68;;;23.60;;
41568;SDS011;27283;52.504;13.358;2023-12-04T05:07:08;63.35;;;22.77;;
41568;SDS011;27283;52.504;13.358;2023-12-04T05:09:41;65.05;;;22.52;;
41568;SDS011;27283;52.504;13.358;2023-12-04T05:12:13;64.90;;;23.10;;
41568;SDS011;27283;52.504;13.358;2023-12-04T05:14:47;66.05;;;22.08;;
41568;SDS011;27283;52.504;13.358;2023-12-04T05:17:20;65.18;;;22.60;;
41568;SDS011;27283;52.504;13.358;2023-12-04T05:19:52;60.53;;;22.30;;
41568;SDS011;27283;52.504;13.358;2023-12-04T05:22:25;64.00;;;21.98;;
41568;SDS011;27283;52.504;13.358;2023-12-04T05:24:57;69.50;;;23.75;;
41568;SDS011;27283;52.504;13.358;2023-12-04T05:27:29;67.43;;;23.38;;
41568;SDS011;27283;52.504;13.358;2023-12-04T05:30:04;70.07;;;23.38;;
41568;SDS011;27283;52.504;13.358;2023-12-04T05:32:39;70.13;;;24.98;;
41568;SDS011;27283;52.504;13.358;2023-12-04T05:35:11;62.75;;;22.80;;
41568;SDS011;27283;52.504;13.358;2023-12-04T05:37:43;67.13;;;23.15;;
41568;SDS011;27283;52.504;13.358;2023-12-04T05:40:15;71.43;;;24.27;;
41568;SDS011;27283;52.504;13.358;2023-12-04T05:42:47;60.15;;;21.90;;
41568;SDS011;27283;52.504;13.358;2023-12-04T05:45:22;67.43;;;22.63;;
41568;SDS011;27283;52.504;13.358;2023-12-04T05:47:54;66.70;;;23.55;;
41568;SDS011;27283;52.504;13.358;2023-12-04T05:50:26;64.53;;;22.45;;
41568;SDS011;27283;52.504;13.358;2023-12-04T05:52:59;66.63;;;23.63;;
41568;SDS011;27283;52.504;13.358;2023-12-04T05:55:30;65.78;;;23.13;;
41568;SDS011;27283;52.504;13.358;2023-12-04T05:58:03;70.93;;;23.40;;
41568;SDS011;27283;52.504;13.358;2023-12-04T06:00:37;69.70;;;24.15;;
41568;SDS011;27283;52.504;13.358;2023-12-04T06:03:11;71.95;;;23.95;;
41568;SDS011;27283;52.504;13.358;2023-12-04T06:05:43;69.47;;;24.05;;
41568;SDS011;27283;52.504;13.358;2023-12-04T06:08:22;64.85;;;23.52;;
41568;SDS011;27283;52.504;13.358;2023-12-04T06:10:54;70.25;;;25.40;;
41568;SDS011;27283;52.504;13.358;2023-12-04T06:13:26;69.00;;;22.48;;
41568;SDS011;27283;52.504;13.358;2023-12-04T06:16:01;68.55;;;23.50;;
41568;SDS011;27283;52.504;13.358;2023-12-04T06:18:33;69.60;;;23.40;;
41568;SDS011;27283;52.504;13.358;2023-12-04T06:21:06;67.97;;;23.08;;
41568;SDS011;27283;52.504;13.358;2023-12-04T06:23:38;62.75;;;23.70;;
41568;SDS011;27283;52.504;13.358;2023-12-04T06:26:11;64.93;;;23.33;;
41568;SDS011;27283;52.504;13.358;2023-12-04T06:28:46;65.05;;;23.30;;
41568;SDS011;27283;52.504;13.358;2023-12-04T06:31:21;56.22;;;21.40;;
41568;SDS011;27283;52.504;13.358;2023-12-04T06:33:54;65.13;;;23.63;;
41568;SDS011;27283;52.504;13.358;2023-12-04T06:36:27;61.22;;;22.42;;
41568;SDS011;27283;52.504;13.358;2023-12-04T06:39:10;62.28;;;22.60;;
41568;SDS011;27283;52.504;13.358;2023-12-04T06:41:45;69.03;;;24.42;;
41568;SDS011;27283;52.504;13.358;2023-12-04T06:44:21;63.33;;;23.30;;
41568;SDS011;27283;52.504;13.358;2023-12-04T06:46:56;59.78;;;23.00;;
41568;SDS011;27283;52.504;13.358;2023-12-04T06:49:32;59.38;;;24.75;;
41568;SDS011;27283;52.504;13.358;2023-12-04T06:52:06;60.30;;;22.42;;
41568;SDS011;27283;52.504;13.358;2023-12-04T06:54:39;62.78;;;22.20;;
41568;SDS011;27283;52.504;13.358;2023-12-04T06:57:12;66.43;;;22.13;;
41568;SDS011;27283;52.504;13.358;2023-12-04T06:59:44;65.55;;;22.60;;
41568;SDS011;27283;52.504;13.358;2023-12-04T07:02:19;58.67;;;22.25;;
41568;SDS011;27283;52.504;13.358;2023-12-04T07:04:51;57.22;;;22.30;;
41568;SDS011;27283;52.504;13.358;2023-12-04T07:07:27;60.25;;;22.15;;
41568;SDS011;27283;52.504;13.358;2023-12-04T07:09:59;57.70;;;21.10;;
41568;SDS011;27283;52.504;13.358;2023-12-04T07:12:32;55.28;;;22.13;;
41568;SDS011;27283;52.504;13.358;2023-12-04T07:15:05;54.78;;;20.60;;
41568;SDS011;27283;52.504;13.358;2023-12-04T07:17:42;53.55;;;20.38;;
41568;SDS011;27283;52.504;13.358;2023-12-04T07:20:15;57.28;;;20.35;;
41568;SDS011;27283;52.504;13.358;2023-12-04T07:22:47;54.78;;;20.90;;
41568;SDS011;27283;52.504;13.358;2023-12-04T07:25:19;51.25;;;21.02;;
41568;SDS011;27283;52.504;13.358;2023-12-04T07:27:51;51.70;;;20.35;;
41568;SDS011;27283;52.504;13.358;2023-12-04T07:30:23;53.63;;;20.15;;
41568;SDS011;27283;52.504;13.358;2023-12-04T07:32:59;51.45;;;20.25;;
41568;SDS011;27283;52.504;13.358;2023-12-04T07:35:34;48.33;;;19.02;;
41568;SDS011;27283;52.504;13.358;2023-12-04T07:38:09;52.40;;;20.60;;
41568;SDS011;27283;52.504;13.358;2023-12-04T07:40:44;46.40;;;19.20;;
41568;SDS011;27283;52.504;13.358;2023-12-04T07:43:18;45.80;;;18.60;;
41568;SDS011;27283;52.504;13.358;2023-12-04T07:45:56;48.08;;;18.60;;
41568;SDS011;27283;52.504;13.358;2023-12-04T07:48:31;48.55;;;19.73;;
41568;SDS011;27283;52.504;13.358;2023-12-04T07:51:13;49.70;;;19.30;;
41568;SDS011;27283;52.504;13.358;2023-12-04T07:53:50;47.58;;;19.35;;
41568;SDS011;27283;52.504;13.358;2023-12-04T07:56:23;51.30;;;19.83;;
41568;SDS011;27283;52.504;13.358;2023-12-04T07:58:58;54.38;;;20.17;;
41568;SDS011;27283;52.504;13.358;2023-12-04T08:04:39;46.97;;;20.15;;
41568;SDS011;27283;52.504;13.358;2023-12-04T08:07:15;49.60;;;20.45;;
41568;SDS011;27283;52.504;13.358;2023-12-04T08:09:47;50.47;;;19.95;;
41568;SDS011;27283;52.504;13.358;2023-12-04T08:12:35;48.42;;;19.63;;
41568;SDS011;27283;52.504;13.358;2023-12-04T08:15:11;46.03;;;18.98;;
41568;SDS011;27283;52.504;13.358;2023-12-04T08:17:44;51.72;;;20.02;;
41568;SDS011;27283;52.504;13.358;2023-12-04T08:20:19;49.00;;;18.75;;
41568;SDS011;27283;52.504;13.358;2023-12-04T08:23:07;42.25;;;17.55;;
41568;SDS011;27283;52.504;13.358;2023-12-04T08:25:44;44.95;;;17.48;;
41568;SDS011;27283;52.504;13.358;2023-12-04T08:28:21;42.05;;;17.85;;
41568;SDS011;27283;52.504;13.358;2023-12-04T08:30:54;43.17;;;18.60;;
41568;SDS011;27283;52.504;13.358;2023-12-04T08:33:27;50.92;;;20.83;;
41568;SDS011;27283;52.504;13.358;2023-12-04T08:36:01;48.03;;;18.80;;
41568;SDS011;27283;52.504;13.358;2023-12-04T08:38:37;45.38;;;18.67;;
41568;SDS011;27283;52.504;13.358;2023-12-04T08:41:09;48.10;;;18.85;;
41568;SDS011;27283;52.504;13.358;2023-12-04T08:43:53;46.60;;;18.55;;
41568;SDS011;27283;52.504;13.358;2023-12-04T08:46:26;43.85;;;17.45;;
41568;SDS011;27283;52.504;13.358;2023-12-04T08:48:59;46.97;;;18.10;;
41568;SDS011;27283;52.504;13.358;2023-12-04T08:51:38;44.67;;;17.48;;
41568;SDS011;27283;52.504;13.358;2023-12-04T08:54:12;40.17;;;17.42;;
41568;SDS011;27283;52.504;13.358;2023-12-04T08:56:45;37.67;;;17.20;;
41568;SDS011;27283;52.504;13.358;2023-12-04T08:59:45;43.50;;;16.88;;
41568;SDS011;27283;52.504;13.358;2023-12-04T09:02:18;42.50;;;18.15;;
41568;SDS011;27283;52.504;13.358;2023-12-04T09:04:50;42.58;;;17.88;;
41568;SDS011;27283;52.504;13.358;2023-12-04T09:07:26;44.45;;;17.90;;
41568;SDS011;27283;52.504;13.358;2023-12-04T09:10:01;45.38;;;17.48;;
41568;SDS011;27283;52.504;13.358;2023-12-04T09:12:41;38.20;;;16.45;;
41568;SDS011;27283;52.504;13.358;2023-12-04T09:15:14;41.05;;;17.50;;
41568;SDS011;27283;52.504;13.358;2023-12-04T09:17:49;42.25;;;16.52;;
41568;SDS011;27283;52.504;13.358;2023-12-04T09:20:21;40.00;;;17.13;;
41568;SDS011;27283;52.504;13.358;2023-12-04T09:22:57;37.67;;;16.70;;
41568;SDS011;27283;52.504;13.358;2023-12-04T09:25:36;42.92;;;17.05;;
41568;SDS011;27283;52.504;13.358;2023-12-04T09:28:14;39.22;;;17.10;;
41568;SDS011;27283;52.504;13.358;2023-12-04T09:30:50;38.13;;;17.05;;
41568;SDS011;27283;52.504;13.358;2023-12-04T09:33:23;44.03;;;16.60;;
41568;SDS011;27283;52.504;13.358;2023-12-04T09:35:55;40.78;;;16.83;;
41568;SDS011;27283;52.504;13.358;2023-12-04T09:38:31;39.95;;;17.38;;
41568;SDS011;27283;52.504;13.358;2023-12-04T09:41:05;38.30;;;17.17;;
41568;SDS011;27283;52.504;13.358;2023-12-04T09:43:54;41.08;;;17.73;;
41568;SDS011;27283;52.504;13.358;2023-12-04T09:46:27;39.10;;;16.80;;
41568;SDS011;27283;52.504;13.358;2023-12-04T09:49:04;38.03;;;15.88;;
41568;SDS011;27283;52.504;13.358;2023-12-04T09:51:39;41.22;;;17.63;;
41568;SDS011;27283;52.504;13.358;2023-12-04T09:54:17;40.05;;;17.60;;
41568;SDS011;27283;52.504;13.358;2023-12-04T09:56:57;43.50;;;16.98;;
41568;SDS011;27283;52.504;13.358;2023-12-04T09:59:56;42.25;;;16.88;;
41568;SDS011;27283;52.504;13.358;2023-12-04T10:02:36;39.60;;;16.33;;
41568;SDS011;27283;52.504;13.358;2023-12-04T10:05:12;39.88;;;16.75;;
41568;SDS011;27283;52.504;13.358;2023-12-04T10:07:44;35.72;;;16.15;;
41568;SDS011;27283;52.504;13.358;2023-12-04T10:10:20;34.78;;;14.77;;
41568;SDS011;27283;52.504;13.358;2023-12-04T10:12:52;34.72;;;15.43;;
41568;SDS011;27283;52.504;13.358;2023-12-04T10:15:24;34.10;;;15.30;;
41568;SDS011;27283;52.504;13.358;2023-12-04T10:17:55;34.60;;;15.27;;
41568;SDS011;27283;52.504;13.358;2023-12-04T10:20:27;34.95;;;14.85;;
41568;SDS011;27283;52.504;13.358;2023-12-04T10:23:00;33.33;;;15.27;;
41568;SDS011;27283;52.504;13.358;2023-12-04T10:29:43;34.55;;;14.55;;
41568;SDS011;27283;52.504;13.358;2023-12-04T10:32:18;35.53;;;14.60;;
41568;SDS011;27283;52.504;13.358;2023-12-04T10:35:06;40.22;;;15.70;;
41568;SDS011;27283;52.504;13.358;2023-12-04T10:37:41;33.70;;;14.98;;
41568;SDS011;27283;52.504;13.358;2023-12-04T10:40:23;33.83;;;14.75;;
41568;SDS011;27283;52.504;13.358;2023-12-04T10:43:09;33.75;;;14.75;;
41568;SDS011;27283;52.504;13.358;2023-12-04T10:45:47;34.45;;;14.80;;
41568;SDS011;27283;52.504;13.358;2023-12-04T10:48:21;33.45;;;15.05;;
41568;SDS011;27283;52.504;13.358;2023-12-04T10:50:54;32.28;;;14.57;;
41568;SDS011;27283;52.504;13.358;2023-12-04T10:53:26;32.58;;;14.80;;
41568;SDS011;27283;52.504;13.358;2023-12-04T10:55:59;29.42;;;14.15;;
41568;SDS011;27283;52.504;13.358;2023-12-04T10:58:37;35.60;;;14.23;;
41568;SDS011;27283;52.504;13.358;2023-12-04T11:01:15;34.05;;;15.25;;
41568;SDS011;27283;52.504;13.358;2023-12-04T11:03:55;31.63;;;14.50;;
41568;SDS011;27283;52.504;13.358;2023-12-04T11:06:32;35.70;;;15.55;;
41568;SDS011;27283;52.504;13.358;2023-12-04T11:09:11;34.35;;;14.32;;
41568;SDS011;27283;52.504;13.358;2023-12-04T11:11:43;35.45;;;14.80;;
41568;SDS011;27283;52.504;13.358;2023-12-04T11:14:22;31.40;;;15.18;;
41568;SDS011;27283;52.504;13.358;2023-12-04T11:17:04;38.10;;;15.57;;
41568;SDS011;27283;52.504;13.358;2023-12-04T11:19:46;36.15;;;15.30;;
41568;SDS011;27283;52.504;13.358;2023-12-04T11:22:26;38.78;;;15.77;;
41568;SDS011;27283;52.504;13.358;2023-12-04T11:24:59;32.65;;;14.05;;
41568;SDS011;27283;52.504;13.358;2023-12-04T11:27:35;33.70;;;15.45;;
41568;SDS011;27283;52.504;13.358;2023-12-04T11:30:10;32.65;;;14.45;;
41568;SDS011;27283;52.504;13.358;2023-12-04T11:32:49;32.70;;;14.77;;
41568;SDS011;27283;52.504;13.358;2023-12-04T11:35:35;31.40;;;14.20;;
41568;SDS011;27283;52.504;13.358;2023-12-04T11:38:10;30.88;;;13.60;;
41568;SDS011;27283;52.504;13.358;2023-12-04T11:40:46;37.38;;;14.50;;
41568;SDS011;27283;52.504;13.358;2023-12-04T11:43:23;41.88;;;17.27;;
41568;SDS011;27283;52.504;13.358;2023-12-04T11:46:11;34.20;;;14.98;;
41568;SDS011;27283;52.504;13.358;2023-12-04T11:48:55;36.80;;;14.75;;
41568;SDS011;27283;52.504;13.358;2023-12-04T11:54:21;33.50;;;14.93;;
41568;SDS011;27283;52.504;13.358;2023-12-04T11:56:58;35.05;;;15.57;;
41568;SDS011;27283;52.504;13.358;2023-12-04T11:59:37;32.45;;;13.48;;
41568;SDS011;27283;52.504;13.358;2023-12-04T12:02:13;30.85;;;13.63;;
41568;SDS011;27283;52.504;13.358;2023-12-04T12:04:54;31.08;;;13.18;;
41568;SDS011;27283;52.504;13.358;2023-12-04T12:07:30;28.67;;;13.52;;
41568;SDS011;27283;52.504;13.358;2023-12-04T12:10:09;30.08;;;13.80;;
41568;SDS011;27283;52.504;13.358;2023-12-04T12:12:45;31.38;;;13.98;;
41568;SDS011;27283;52.504;13.358;2023-12-04T12:15:19;29.50;;;13.23;;
41568;SDS011;27283;52.504;13.358;2023-12-04T12:17:53;34.10;;;15.40;;
41568;SDS011;27283;52.504;13.358;2023-12-04T12:20:35;33.83;;;14.63;;
41568;SDS011;27283;52.504;13.358;2023-12-04T12:23:09;29.70;;;13.93;;
41568;SDS011;27283;52.504;13.358;2023-12-04T12:25:44;32.58;;;14.00;;
41568;SDS011;27283;52.504;13.358;2023-12-04T12:28:21;31.02;;;14.13;;
41568;SDS011;27283;52.504;13.358;2023-12-04T12:31:02;37.72;;;15.30;;
41568;SDS011;27283;52.504;13.358;2023-12-04T12:33:37;27.20;;;13.13;;
41568;SDS011;27283;52.504;13.358;2023-12-04T12:36:14;32.78;;;14.38;;
41568;SDS011;27283;52.504;13.358;2023-12-04T12:38:53;29.70;;;13.32;;
41568;SDS011;27283;52.504;13.358;2023-12-04T12:41:35;28.27;;;13.32;;
41568;SDS011;27283;52.504;13.358;2023-12-04T12:44:12;32.33;;;14.32;;
41568;SDS011;27283;52.504;13.358;2023-12-04T12:46:48;34.42;;;14.88;;
41568;SDS011;27283;52.504;13.358;2023-12-04T12:49:25;34.67;;;14.95;;
41568;SDS011;27283;52.504;13.358;2023-12-04T12:52:14;28.52;;;13.15;;
41568;SDS011;27283;52.504;13.358;2023-12-04T12:54:48;29.35;;;13.63;;
41568;SDS011;27283;52.504;13.358;2023-12-04T12:57:20;35.30;;;15.85;;
41568;SDS011;27283;52.504;13.358;2023-12-04T12:59:54;29.50;;;13.45;;
41568;SDS011;27283;52.504;13.358;2023-12-04T13:02:27;31.38;;;13.07;;
41568;SDS011;27283;52.504;13.358;2023-12-04T13:05:04;31.15;;;13.85;;
41568;SDS011;27283;52.504;13.358;2023-12-04T13:11:30;31.83;;;13.75;;
41568;SDS011;27283;52.504;13.358;2023-12-04T13:14:02;29.63;;;13.43;;
41568;SDS011;27283;52.504;13.358;2023-12-04T13:16:34;34.92;;;14.43;;
41568;SDS011;27283;52.504;13.358;2023-12-04T13:19:06;33.00;;;14.00;;
41568;SDS011;27283;52.504;13.358;2023-12-04T13:21:40;29.95;;;13.75;;
41568;SDS011;27283;52.504;13.358;2023-12-04T13:24:12;30.40;;;14.13;;
41568;SDS011;27283;52.504;13.358;2023-12-04T13:26:46;31.38;;;14.45;;
41568;SDS011;27283;52.504;13.358;2023-12-04T13:29:18;30.85;;;13.95;;
41568;SDS011;27283;52.504;13.358;2023-12-04T13:31:51;28.88;;;13.30;;
41568;SDS011;27283;52.504;13.358;2023-12-04T13:34:24;36.03;;;14.68;;
41568;SDS011;27283;52.504;13.358;2023-12-04T13:36:56;33.53;;;14.23;;
41568;SDS011;27283;52.504;13.358;2023-12-04T13:39:29;29.10;;;13.98;;
41568;SDS011;27283;52.504;13.358;2023-12-04T13:42:20;31.02;;;14.00;;
41568;SDS011;27283;52.504;13.358;2023-12-04T13:45:04;33.25;;;14.30;;
41568;SDS011;27283;52.504;13.358;2023-12-04T13:47:38;32.30;;;14.05;;
41568;SDS011;27283;52.504;13.358;2023-12-04T13:50:11;33.72;;;13.88;;
41568;SDS011;27283;52.504;13.358;2023-12-04T13:52:43;33.95;;;15.77;;
41568;SDS011;27283;52.504;13.358;2023-12-04T13:55:24;35.50;;;15.45;;
41568;SDS011;27283;52.504;13.358;2023-12-04T13:58:18;34.53;;;15.70;;
41568;SDS011;27283;52.504;13.358;2023-12-04T14:01:10;36.05;;;14.70;;
41568;SDS011;27283;52.504;13.358;2023-12-04T14:03:51;36.45;;;14.73;;
41568;SDS011;27283;52.504;13.358;2023-12-04T14:06:29;33.17;;;15.13;;
41568;SDS011;27283;52.504;13.358;2023-12-04T14:09:08;32.13;;;14.98;;
41568;SDS011;27283;52.504;13.358;2023-12-04T14:12:04;35.10;;;14.25;;
41568;SDS011;27283;52.504;13.358;2023-12-04T14:14:40;36.65;;;15.50;;
41568;SDS011;27283;52.504;13.358;2023-12-04T14:17:49;33.55;;;14.27;;
41568;SDS011;27283;52.504;13.358;2023-12-04T14:20:21;33.15;;;15.10;;
41568;SDS011;27283;52.504;13.358;2023-12-04T14:22:55;34.80;;;14.73;;
41568;SDS011;27283;52.504;13.358;2023-12-04T14:25:34;34.03;;;15.25;;
41568;SDS011;27283;52.504;13.358;2023-12-04T14:28:07;32.17;;;14.73;;
41568;SDS011;27283;52.504;13.358;2023-12-04T14:30:43;33.17;;;15.27;;
41568;SDS011;27283;52.504;13.358;2023-12-04T14:33:16;32.75;;;14.77;;
41568;SDS011;27283;52.504;13.358;2023-12-04T14:35:49;35.63;;;15.15;;
41568;SDS011;27283;52.504;13.358;2023-12-04T14:38:22;34.47;;;14.75;;
41568;SDS011;27283;52.504;13.358;2023-12-04T14:40:55;31.45;;;14.70;;
41568;SDS011;27283;52.504;13.358;2023-12-04T14:43:31;37.22;;;16.58;;
41568;SDS011;27283;52.504;13.358;2023-12-04T14:46:09;33.47;;;14.70;;
41568;SDS011;27283;52.504;13.358;2023-12-04T14:48:42;33.53;;;14.57;;
41568;SDS011;27283;52.504;13.358;2023-12-04T14:51:15;35.13;;;16.35;;
41568;SDS011;27283;52.504;13.358;2023-12-04T14:53:48;38.05;;;16.20;;
41568;SDS011;27283;52.504;13.358;2023-12-04T14:56:44;33.38;;;16.10;;
41568;SDS011;27283;52.504;13.358;2023-12-04T14:59:35;34.53;;;14.35;;
41568;SDS011;27283;52.504;13.358;2023-12-04T15:02:30;32.60;;;14.88;;
41568;SDS011;27283;52.504;13.358;2023-12-04T15:05:39;36.50;;;16.25;;
41568;SDS011;27283;52.504;13.358;2023-12-04T15:08:30;33.92;;;14.93;;
41568;SDS011;27283;52.504;13.358;2023-12-04T15:11:15;36.15;;;15.70;;
41568;SDS011;27283;52.504;13.358;2023-12-04T15:14:12;36.20;;;15.02;;